createdAt,value
2023-04-19T00:00:18.622Z,100.00
2023-04-19T00:02:49.610Z,100.00
2023-04-19T00:05:22.487Z,100.00
2023-04-19T00:07:51.063Z,100.00
2023-04-19T00:10:19.441Z,100.00
2023-04-19T00:12:47.809Z,100.00
2023-04-19T00:15:16.136Z,100.00
2023-04-19T00:17:44.816Z,100.00
2023-04-19T00:20:13.507Z,100.00
2023-04-19T00:22:43.263Z,100.00
2023-04-19T00:25:11.530Z,100.00
2023-04-19T00:27:39.654Z,100.00
2023-04-19T00:30:08.851Z,100.00
2023-04-19T00:32:37.047Z,100.00
2023-04-19T00:35:05.469Z,100.00
2023-04-19T00:37:33.713Z,100.00
2023-04-19T00:40:04.493Z,100.00
2023-04-19T00:42:33.649Z,100.00
2023-04-19T00:45:01.651Z,100.00
2023-04-19T00:47:30.310Z,100.00
2023-04-19T00:49:58.564Z,100.00
2023-04-19T00:52:27.500Z,100.00
2023-04-19T00:54:56.997Z,100.00
2023-04-19T00:57:26.707Z,100.00
2023-04-19T00:59:56.888Z,100.00
2023-04-19T01:02:25.317Z,100.00
2023-04-19T01:04:53.979Z,100.00
2023-04-19T01:07:22.066Z,100.00
2023-04-19T01:09:50.625Z,100.00
2023-04-19T01:12:18.832Z,100.00
2023-04-19T01:14:48.828Z,100.00
2023-04-19T01:17:18.439Z,100.00
2023-04-19T01:19:47.444Z,100.00
2023-04-19T01:22:19.896Z,100.00
2023-04-19T01:24:47.974Z,100.00
2023-04-19T01:27:17.621Z,100.00
2023-04-19T01:29:46.226Z,100.00
2023-04-19T01:32:14.599Z,100.00
2023-04-19T01:34:43.285Z,100.00
2023-04-19T01:37:11.596Z,100.00
2023-04-19T01:39:41.127Z,100.00
2023-04-19T01:42:09.344Z,100.00
2023-04-19T01:44:37.765Z,100.00
2023-04-19T01:47:07.078Z,100.00
2023-04-19T01:49:35.577Z,100.00
2023-04-19T01:52:03.689Z,100.00
2023-04-19T01:54:31.922Z,100.00
2023-04-19T01:57:01.595Z,100.00
2023-04-19T01:59:30.008Z,100.00
2023-04-19T02:01:58.156Z,100.00
2023-04-19T02:04:28.166Z,100.00
2023-04-19T02:06:56.264Z,100.00
2023-04-19T02:09:24.563Z,100.00
2023-04-19T02:11:52.714Z,100.00
2023-04-19T02:14:22.471Z,100.00
2023-04-19T02:16:50.692Z,100.00
2023-04-19T02:19:19.299Z,100.00
2023-04-19T02:21:48.880Z,100.00
2023-04-19T02:24:17.267Z,100.00
2023-04-19T02:26:45.860Z,100.00
2023-04-19T02:29:14.292Z,100.00
2023-04-19T02:31:45.705Z,100.00
2023-04-19T02:34:14.326Z,100.00
2023-04-19T02:36:42.543Z,100.00
2023-04-19T02:39:10.743Z,100.00
2023-04-19T02:41:39.123Z,100.00
2023-04-19T02:44:07.177Z,100.00
2023-04-19T02:46:35.477Z,100.00
2023-04-19T02:49:07.124Z,100.00
2023-04-19T02:51:35.438Z,100.00
2023-04-19T02:54:03.792Z,100.00
2023-04-19T02:56:31.928Z,100.00
2023-04-19T02:59:02.001Z,100.00
2023-04-19T03:01:30.647Z,100.00
2023-04-19T03:03:59.735Z,100.00
2023-04-19T03:06:30.027Z,100.00
2023-04-19T03:08:58.144Z,100.00
2023-04-19T03:11:26.573Z,100.00
2023-04-19T03:13:56.173Z,100.00
2023-04-19T03:16:26.720Z,100.00
2023-04-19T03:18:55.330Z,100.00
2023-04-19T03:21:27.509Z,100.00
2023-04-19T03:23:58.324Z,100.00
2023-04-19T03:26:27.196Z,100.00
2023-04-19T03:28:56.189Z,100.00
2023-04-19T03:31:24.691Z,100.00
2023-04-19T03:33:52.872Z,100.00
2023-04-19T03:36:20.902Z,100.00
2023-04-19T03:38:49.001Z,100.00
2023-04-19T03:41:22.900Z,100.00
2023-04-19T03:43:51.240Z,100.00
2023-04-19T03:46:21.648Z,100.00
2023-04-19T03:48:50.106Z,100.00
2023-04-19T03:51:18.518Z,100.00
2023-04-19T03:53:47.634Z,100.00
2023-04-19T03:56:16.048Z,100.00
2023-04-19T03:58:45.646Z,100.00
2023-04-19T04:01:22.240Z,100.00
2023-04-19T04:03:50.753Z,100.00
2023-04-19T04:06:19.234Z,100.00
2023-04-19T04:08:47.841Z,100.00
2023-04-19T04:11:16.006Z,100.00
2023-04-19T04:13:47.337Z,100.00
2023-04-19T04:16:15.502Z,100.00
2023-04-19T04:18:43.974Z,100.00
2023-04-19T04:21:12.127Z,100.00
2023-04-19T04:23:40.714Z,100.00
2023-04-19T04:26:10.176Z,100.00
2023-04-19T04:28:38.341Z,100.00
2023-04-19T04:31:13.264Z,100.00
2023-04-19T04:33:41.873Z,100.00
2023-04-19T04:36:12.137Z,100.00
2023-04-19T04:38:40.304Z,100.00
2023-04-19T04:41:08.954Z,100.00
2023-04-19T04:43:38.502Z,100.00
2023-04-19T04:46:09.203Z,100.00
2023-04-19T04:48:37.686Z,100.00
2023-04-19T04:51:06.158Z,100.00
2023-04-19T04:53:34.852Z,100.00
2023-04-19T04:56:03.275Z,100.00
2023-04-19T04:58:31.424Z,100.00
2023-04-19T05:01:00.204Z,100.00
2023-04-19T05:03:30.357Z,100.00
2023-04-19T05:05:58.436Z,100.00
2023-04-19T05:08:26.966Z,100.00
2023-04-19T05:10:55.450Z,100.00
2023-04-19T05:13:23.591Z,100.00
2023-04-19T05:15:51.622Z,100.00
2023-04-19T05:18:20.059Z,100.00
2023-04-19T05:20:49.790Z,100.00
2023-04-19T05:23:19.190Z,100.00
2023-04-19T05:25:47.886Z,100.00
2023-04-19T05:28:16.000Z,100.00
2023-04-19T05:30:44.248Z,100.00
2023-04-19T05:33:12.667Z,100.00
2023-04-19T05:35:41.127Z,100.00
2023-04-19T05:38:10.913Z,100.00
2023-04-19T05:40:40.417Z,100.00
2023-04-19T05:43:08.781Z,100.00
2023-04-19T05:45:36.892Z,100.00
2023-04-19T05:48:05.568Z,100.00
2023-04-19T05:50:34.076Z,100.00
2023-04-19T05:53:02.109Z,100.00
2023-04-19T05:55:31.946Z,100.00
2023-04-19T05:58:00.051Z,100.00
2023-04-19T06:00:28.889Z,100.00
2023-04-19T06:02:57.516Z,100.00
2023-04-19T06:05:26.314Z,100.00
2023-04-19T06:08:02.627Z,100.00
2023-04-19T06:10:44.525Z,100.00
2023-04-19T06:13:20.789Z,100.00
2023-04-19T06:15:49.240Z,100.00
2023-04-19T06:18:19.543Z,100.00
2023-04-19T06:20:48.612Z,100.00
2023-04-19T06:23:18.749Z,100.00
2023-04-19T06:25:49.312Z,100.00
2023-04-19T06:28:17.501Z,100.00
2023-04-19T06:30:45.679Z,100.00
2023-04-19T06:33:13.842Z,100.00
2023-04-19T06:35:42.258Z,100.00
2023-04-19T06:38:10.414Z,100.00
2023-04-19T06:40:38.575Z,100.00
2023-04-19T06:43:08.081Z,100.00
2023-04-19T06:45:36.563Z,100.00
2023-04-19T06:48:05.221Z,100.00
2023-04-19T06:50:33.398Z,100.00
2023-04-19T06:53:04.088Z,100.00
2023-04-19T06:55:34.164Z,100.00
2023-04-19T06:58:02.221Z,100.00
2023-04-19T07:00:32.088Z,100.00
2023-04-19T07:03:01.652Z,100.00
2023-04-19T07:05:30.355Z,100.00
2023-04-19T07:07:58.915Z,100.00
2023-04-19T07:10:27.143Z,100.00
2023-04-19T07:12:55.522Z,100.00
2023-04-19T07:15:24.013Z,100.00
2023-04-19T07:17:53.699Z,100.00
2023-04-19T07:20:22.198Z,100.00
2023-04-19T07:22:50.605Z,100.00
2023-04-19T07:25:19.138Z,100.00
2023-04-19T07:27:47.449Z,100.00
2023-04-19T07:30:15.842Z,100.00
2023-04-19T07:32:44.168Z,100.00
2023-04-19T07:35:14.218Z,100.00
2023-04-19T07:37:42.347Z,100.00
2023-04-19T07:40:12.149Z,100.00
2023-04-19T07:42:40.969Z,100.00
2023-04-19T07:45:10.356Z,100.00
2023-04-19T07:47:39.857Z,100.00
2023-04-19T07:50:09.556Z,100.00
2023-04-19T07:52:39.392Z,100.00
2023-04-19T07:55:08.764Z,100.00
2023-04-19T07:57:37.119Z,100.00
2023-04-19T08:00:06.310Z,100.00
2023-04-19T08:02:34.721Z,100.00
2023-04-19T08:05:03.973Z,100.00
2023-04-19T08:07:32.237Z,100.00
2023-04-19T08:10:01.993Z,100.00
2023-04-19T08:12:38.323Z,100.00
2023-04-19T08:15:29.628Z,100.00
2023-04-19T08:17:59.511Z,100.00
2023-04-19T08:20:27.785Z,100.00
2023-04-19T08:22:56.375Z,100.00
2023-04-19T08:25:28.809Z,100.00
2023-04-19T08:27:57.626Z,100.00
2023-04-19T08:30:26.019Z,100.00
2023-04-19T08:32:56.896Z,100.00
2023-04-19T08:35:25.785Z,100.00
2023-04-19T08:37:54.204Z,100.00
2023-04-19T08:40:22.506Z,100.00
2023-04-19T08:42:52.257Z,100.00
2023-04-19T08:48:00.704Z,100.00
2023-04-19T08:50:37.111Z,100.00
2023-04-19T08:53:23.807Z,100.00
2023-04-19T08:56:12.926Z,100.00
2023-04-19T09:01:33.629Z,100.00
2023-04-19T09:04:25.961Z,100.00
2023-04-19T09:06:54.608Z,100.00
2023-04-19T09:11:59.698Z,100.00
2023-04-19T09:14:31.712Z,100.00
2023-04-19T09:17:14.888Z,100.00
2023-04-19T09:19:52.133Z,100.00
2023-04-19T09:22:20.509Z,100.00
2023-04-19T09:27:27.737Z,100.00
2023-04-19T09:30:00.712Z,100.00
2023-04-19T09:32:31.880Z,99.79
2023-04-19T09:35:01.901Z,97.49
2023-04-19T09:37:56.814Z,94.28
2023-04-19T09:40:27.415Z,94.62
2023-04-19T09:45:31.241Z,91.91
2023-04-19T09:48:04.483Z,88.40
2023-04-19T09:50:34.030Z,84.95
2023-04-19T09:53:07.922Z,84.65
2023-04-19T09:55:48.612Z,81.53
2023-04-19T09:58:29.394Z,78.06
2023-04-19T10:01:14.967Z,78.58
2023-04-19T10:03:46.363Z,75.09
2023-04-19T10:06:35.662Z,71.94
2023-04-19T10:09:07.421Z,71.66
2023-04-19T10:11:41.540Z,68.79
2023-04-19T10:14:12.565Z,68.20
2023-04-19T10:16:42.334Z,68.40
2023-04-19T10:19:13.508Z,62.07
2023-04-19T10:21:43.865Z,63.03
2023-04-19T10:24:15.542Z,62.93
2023-04-19T10:27:12.370Z,59.72
2023-04-19T10:29:56.456Z,58.37
2023-04-19T10:32:28.537Z,57.31
2023-04-19T10:34:57.005Z,55.43
2023-04-19T10:37:27.579Z,55.65
2023-04-19T10:39:56.328Z,54.90
2023-04-19T10:42:24.530Z,53.30
2023-04-19T10:45:35.189Z,53.38
2023-04-19T10:48:06.373Z,54.04
2023-04-19T10:51:00.134Z,48.54
2023-04-19T10:53:48.477Z,52.36
2023-04-19T10:56:18.053Z,50.19
2023-04-19T10:59:22.949Z,50.32
2023-04-19T11:01:54.079Z,49.16
2023-04-19T11:04:47.900Z,48.22
2023-04-19T11:07:18.493Z,48.70
2023-04-19T11:09:47.648Z,46.19
2023-04-19T11:12:16.949Z,45.71
2023-04-19T11:14:47.091Z,45.86
2023-04-19T11:17:23.148Z,44.92
2023-04-19T11:19:58.107Z,43.31
2023-04-19T11:22:28.363Z,45.55
2023-04-19T11:24:56.394Z,47.45
2023-04-19T11:27:26.262Z,47.13
2023-04-19T11:30:04.449Z,45.19
2023-04-19T11:32:33.786Z,45.06
2023-04-19T11:35:09.048Z,42.72
2023-04-19T11:37:40.651Z,41.76
2023-04-19T11:40:10.835Z,41.78
2023-04-19T11:42:39.630Z,41.26
2023-04-19T11:45:18.659Z,42.76
2023-04-19T11:47:55.035Z,40.47
2023-04-19T11:50:35.296Z,40.14
2023-04-19T11:53:13.174Z,42.69
2023-04-19T11:55:44.439Z,40.68
2023-04-19T11:58:29.696Z,37.92
2023-04-19T12:01:01.060Z,36.99
2023-04-19T12:03:29.543Z,37.77
2023-04-19T12:06:01.066Z,37.72
2023-04-19T12:08:34.367Z,36.13
2023-04-19T12:11:03.732Z,36.61
2023-04-19T12:13:32.558Z,35.41
2023-04-19T12:16:02.686Z,35.21
2023-04-19T12:18:45.477Z,34.40
2023-04-19T12:21:26.545Z,35.31
2023-04-19T12:23:58.722Z,35.45
2023-04-19T12:26:28.533Z,34.50
2023-04-19T12:28:57.752Z,34.03
2023-04-19T12:31:26.086Z,33.04
2023-04-19T12:33:54.550Z,33.25
2023-04-19T12:36:24.332Z,32.58
2023-04-19T12:38:52.682Z,31.51
2023-04-19T12:41:21.317Z,32.40
2023-04-19T12:43:49.946Z,32.96
2023-04-19T12:46:18.519Z,35.04
2023-04-19T12:48:46.826Z,34.89
2023-04-19T12:51:16.340Z,35.62
2023-04-19T12:53:52.039Z,34.96
2023-04-19T12:56:20.334Z,35.97
2023-04-19T12:58:48.688Z,35.27
2023-04-19T13:01:17.214Z,35.68
2023-04-19T13:03:45.530Z,36.05
2023-04-19T13:06:15.601Z,34.94
2023-04-19T13:08:46.505Z,34.54
2023-04-19T13:11:23.198Z,34.58
2023-04-19T13:13:54.343Z,34.32
2023-04-19T13:16:23.359Z,33.75
2023-04-19T13:18:52.889Z,35.48
2023-04-19T13:21:21.710Z,36.02
2023-04-19T13:23:50.057Z,36.79
2023-04-19T13:26:19.616Z,37.09
2023-04-19T13:28:47.815Z,35.74
2023-04-19T13:31:16.060Z,35.21
2023-04-19T13:33:44.682Z,33.72
2023-04-19T13:36:13.079Z,33.38
2023-04-19T13:38:41.308Z,33.72
2023-04-19T13:41:09.614Z,33.10
2023-04-19T13:43:39.644Z,31.55
2023-04-19T13:46:07.886Z,33.58
2023-04-19T13:48:36.255Z,32.34
2023-04-19T13:51:04.724Z,33.62
2023-04-19T13:53:33.164Z,34.18
2023-04-19T13:56:01.357Z,33.38
2023-04-19T13:58:29.396Z,33.62
2023-04-19T14:00:59.108Z,33.79
2023-04-19T14:03:27.637Z,32.82
2023-04-19T14:05:56.764Z,33.10
2023-04-19T14:08:24.876Z,33.25
2023-04-19T14:10:53.064Z,33.32
2023-04-19T14:13:22.746Z,33.84
2023-04-19T14:15:50.991Z,34.14
2023-04-19T14:18:20.671Z,32.45
2023-04-19T14:20:49.452Z,33.23
2023-04-19T14:23:18.152Z,33.17
2023-04-19T14:25:46.368Z,34.39
2023-04-19T14:28:14.827Z,33.55
2023-04-19T14:30:43.250Z,34.57
2023-04-19T14:33:11.925Z,33.38
2023-04-19T14:35:43.098Z,32.93
2023-04-19T14:38:11.433Z,32.30
2023-04-19T14:40:39.813Z,32.27
2023-04-19T14:43:07.816Z,32.46
2023-04-19T14:45:36.213Z,32.08
2023-04-19T14:48:04.572Z,32.13
2023-04-19T14:50:32.699Z,32.60
2023-04-19T14:53:02.375Z,32.01
2023-04-19T14:55:30.601Z,32.36
2023-04-19T14:57:58.715Z,32.48
2023-04-19T15:00:27.014Z,32.86
2023-04-19T15:02:55.486Z,32.61
2023-04-19T15:05:25.245Z,32.22
2023-04-19T15:07:53.941Z,31.80
2023-04-19T15:10:23.420Z,31.61
2023-04-19T15:12:51.636Z,31.14
2023-04-19T15:15:20.026Z,31.76
2023-04-19T15:17:48.216Z,30.96
2023-04-19T15:20:16.969Z,30.26
2023-04-19T15:22:45.231Z,30.15
2023-04-19T15:25:17.095Z,29.73
2023-04-19T15:27:46.551Z,29.51
2023-04-19T15:30:15.461Z,29.68
2023-04-19T15:32:44.654Z,29.49
2023-04-19T15:35:13.189Z,30.25
2023-04-19T15:37:42.093Z,30.39
2023-04-19T15:40:12.724Z,29.41
2023-04-19T15:42:41.326Z,29.19
2023-04-19T15:45:12.418Z,28.73
2023-04-19T15:47:40.966Z,29.09
2023-04-19T15:50:11.220Z,28.97
2023-04-19T15:52:39.312Z,29.60
2023-04-19T15:55:07.990Z,28.79
2023-04-19T15:57:36.089Z,29.56
2023-04-19T16:00:05.487Z,29.46
2023-04-19T16:02:37.539Z,28.73
2023-04-19T16:05:06.635Z,28.42
2023-04-19T16:07:35.157Z,27.98
2023-04-19T16:10:03.609Z,27.84
2023-04-19T16:12:31.811Z,27.83
2023-04-19T16:15:00.446Z,29.07
2023-04-19T16:17:28.574Z,29.44
2023-04-19T16:19:58.455Z,30.20
2023-04-19T16:22:26.572Z,29.36
2023-04-19T16:24:55.621Z,29.22
2023-04-19T16:27:23.877Z,28.59
2023-04-19T16:29:52.108Z,27.25
2023-04-19T16:32:22.049Z,27.29
2023-04-19T16:34:50.724Z,27.47
2023-04-19T16:37:20.849Z,27.73
2023-04-19T16:39:49.079Z,29.13
2023-04-19T16:42:17.525Z,28.80
2023-04-19T16:44:46.670Z,28.73
2023-04-19T16:47:15.086Z,27.98
2023-04-19T16:49:43.584Z,28.51
2023-04-19T16:52:11.774Z,28.67
2023-04-19T16:54:41.472Z,28.00
2023-04-19T16:57:10.398Z,27.93
2023-04-19T16:59:38.717Z,28.46
2023-04-19T17:02:08.487Z,28.69
2023-04-19T17:04:37.439Z,28.30
2023-04-19T17:07:05.828Z,28.86
2023-04-19T17:09:34.550Z,29.07
2023-04-19T17:12:04.563Z,28.75
2023-04-19T17:14:32.971Z,29.20
2023-04-19T17:17:02.820Z,29.25
2023-04-19T17:19:31.190Z,29.13
2023-04-19T17:22:05.278Z,28.75
2023-04-19T17:24:33.803Z,29.27
2023-04-19T17:27:03.725Z,28.95
2023-04-19T17:29:32.699Z,29.13
2023-04-19T17:32:01.541Z,29.34
2023-04-19T17:34:30.053Z,29.30
2023-04-19T17:37:00.387Z,29.26
2023-04-19T17:39:29.158Z,29.67
2023-04-19T17:41:57.911Z,29.89
2023-04-19T17:44:27.955Z,29.96
2023-04-19T17:46:56.660Z,30.60
2023-04-19T17:49:26.733Z,30.90
2023-04-19T17:51:56.905Z,30.59
2023-04-19T17:54:25.348Z,30.17
2023-04-19T17:56:54.727Z,30.49
2023-04-19T17:59:22.808Z,30.47
2023-04-19T18:01:52.711Z,30.96
2023-04-19T18:04:21.830Z,31.55
2023-04-19T18:06:50.251Z,32.15
2023-04-19T18:09:19.409Z,32.67
2023-04-19T18:11:47.959Z,33.15
2023-04-19T18:14:16.452Z,33.49
2023-04-19T18:16:44.831Z,34.11
2023-04-19T18:19:15.234Z,34.45
2023-04-19T18:21:43.881Z,34.55
2023-04-19T18:24:12.307Z,34.77
2023-04-19T18:26:42.660Z,34.85
2023-04-19T18:29:12.393Z,35.10
2023-04-19T18:31:40.850Z,35.59
2023-04-19T18:34:11.273Z,35.63
2023-04-19T18:36:42.311Z,36.57
2023-04-19T18:39:10.741Z,37.10
2023-04-19T18:41:39.041Z,37.14
2023-04-19T18:44:35.419Z,36.88
2023-04-19T18:46:55.656Z,36.96
2023-04-19T18:49:23.889Z,36.91
2023-04-19T18:51:53.764Z,36.86
2023-04-19T18:54:21.859Z,37.54
2023-04-19T18:57:21.183Z,37.57
2023-04-19T18:59:38.757Z,37.53
2023-04-19T19:02:07.464Z,37.65
2023-04-19T19:04:51.239Z,38.03
2023-04-19T19:09:57.128Z,39.08
2023-04-19T19:12:25.688Z,39.67
2023-04-19T19:14:54.077Z,40.23
2023-04-19T19:17:24.551Z,40.46
2023-04-19T19:19:52.724Z,41.31
2023-04-19T19:22:27.923Z,41.16
2023-04-19T19:24:58.085Z,41.71
2023-04-19T19:27:26.527Z,41.76
2023-04-19T19:29:55.063Z,42.10
2023-04-19T19:32:23.455Z,41.88
2023-04-19T19:34:56.584Z,41.95
2023-04-19T19:37:30.676Z,43.37
2023-04-19T19:40:04.167Z,42.47
2023-04-19T19:42:34.439Z,43.89
2023-04-19T19:45:04.302Z,43.90
2023-04-19T19:47:35.520Z,43.78
2023-04-19T19:50:46.633Z,44.04
2023-04-19T19:52:53.940Z,44.47
2023-04-19T19:55:24.206Z,44.68
2023-04-19T20:00:44.061Z,45.63
2023-04-19T20:03:12.807Z,45.84
2023-04-19T20:05:41.394Z,45.88
2023-04-19T20:08:12.027Z,46.17
2023-04-19T20:10:44.259Z,45.85
2023-04-19T20:13:13.411Z,46.10
2023-04-19T20:15:42.458Z,46.24
2023-04-19T20:18:10.835Z,46.80
2023-04-19T20:20:39.131Z,47.73
2023-04-19T20:23:07.386Z,49.20
2023-04-19T20:25:35.588Z,49.77
2023-04-19T20:28:07.049Z,50.71
2023-04-19T20:30:36.477Z,51.53
2023-04-19T20:33:05.072Z,52.29
2023-04-19T20:35:34.743Z,51.97
2023-04-19T20:38:03.496Z,52.67
2023-04-19T20:40:33.260Z,53.64
2023-04-19T20:43:01.629Z,54.20
2023-04-19T20:45:31.600Z,54.72
2023-04-19T20:47:59.837Z,54.93
2023-04-19T20:50:28.303Z,54.66
2023-04-19T20:52:56.792Z,55.35
2023-04-19T20:55:25.406Z,55.66
2023-04-19T20:57:54.020Z,55.07
2023-04-19T21:00:22.549Z,55.86
2023-04-19T21:02:52.552Z,56.70
2023-04-19T21:05:21.103Z,57.40
2023-04-19T21:07:49.316Z,58.30
2023-04-19T21:10:17.507Z,58.01
2023-04-19T21:12:46.135Z,56.82
2023-04-19T21:15:14.174Z,56.17
2023-04-19T21:17:42.851Z,56.06
2023-04-19T21:20:15.965Z,55.69
2023-04-19T21:22:45.832Z,55.54
2023-04-19T21:25:14.717Z,56.88
2023-04-19T21:27:43.860Z,57.16
2023-04-19T21:30:14.438Z,57.92
2023-04-19T21:32:42.906Z,58.16
2023-04-19T21:35:12.586Z,58.89
2023-04-19T21:37:41.147Z,58.50
2023-04-19T21:40:10.326Z,58.34
2023-04-19T21:42:38.870Z,57.83
2023-04-19T21:45:08.544Z,57.99
2023-04-19T21:47:36.780Z,57.68
2023-04-19T21:50:05.512Z,57.51
2023-04-19T21:52:35.664Z,57.51
2023-04-19T21:55:03.860Z,58.18
2023-04-19T21:57:31.948Z,57.48
2023-04-19T22:00:00.297Z,57.45
2023-04-19T22:02:28.511Z,58.71
2023-04-19T22:04:56.794Z,58.50
2023-04-19T22:07:25.420Z,58.55
2023-04-19T22:09:55.152Z,59.01
2023-04-19T22:12:23.592Z,59.13
2023-04-19T22:14:52.140Z,58.27
2023-04-19T22:17:20.923Z,58.85
2023-04-19T22:19:49.160Z,59.37
2023-04-19T22:22:17.455Z,58.91
2023-04-19T22:24:57.039Z,59.73
2023-04-19T22:27:27.255Z,59.98
2023-04-19T22:29:55.593Z,60.34
2023-04-19T22:32:24.065Z,59.84
2023-04-19T22:34:52.131Z,59.12
2023-04-19T22:37:20.614Z,59.86
2023-04-19T22:39:48.669Z,59.93
2023-04-19T22:42:17.239Z,59.44
2023-04-19T22:44:46.755Z,59.27
2023-04-19T22:47:16.634Z,60.65
2023-04-19T22:49:45.225Z,60.91
2023-04-19T22:52:14.654Z,60.73
2023-04-19T22:54:43.060Z,60.16
2023-04-19T22:57:12.145Z,59.12
2023-04-19T22:59:40.452Z,58.75
2023-04-19T23:02:10.009Z,59.01
2023-04-19T23:04:39.490Z,58.80
2023-04-19T23:07:08.360Z,58.22
2023-04-19T23:09:39.490Z,58.27
2023-04-19T23:12:08.551Z,58.00
2023-04-19T23:14:38.708Z,58.99
2023-04-19T23:17:07.548Z,61.03
2023-04-19T23:19:38.875Z,65.65
2023-04-19T23:22:07.594Z,65.16
2023-04-19T23:24:37.060Z,64.22
2023-04-19T23:27:05.450Z,65.44
2023-04-19T23:29:33.515Z,63.70
2023-04-19T23:32:02.642Z,61.29
2023-04-19T23:34:30.782Z,60.55
2023-04-19T23:37:00.871Z,61.93
2023-04-19T23:39:29.709Z,62.17
2023-04-19T23:41:58.079Z,62.51
2023-04-19T23:44:27.063Z,64.23
2023-04-19T23:46:55.226Z,65.33
2023-04-19T23:49:23.643Z,68.94
2023-04-19T23:51:51.753Z,72.36
2023-04-19T23:54:25.822Z,74.60
2023-04-19T23:56:54.574Z,74.83
2023-04-19T23:59:26.880Z,72.74
